Holgate, Ohio
Current Conditions -  °F | °C
As of 2:30 PM on Friday 28 Nov 2014 (Local Time) from KDFI Reporting Station
Overcast Overcast  
Wind Chill: 18°   Ceiling: 4600
Heat Index: 27°   Visibility: 9mi
Dew Point: 20°   Wind: 9mph
Humidity: 75%   Direction: 200°SSW
Pressure: 30.22"   Gusts: NA
Location:  41.25°N, 84.13°W
Report Text: KDFI 281930Z AUTO 20008KT 9SM FEW020 BKN046 OVC070 M03/M07 A3022 RMK AO2 SNE06 P0000 T10281067
Loading
Personal Weather Stations






























Interactive Weather Map New forecast layout! Learn more

10-Day Weather Forecast

Advertisements
Track Severe Weather on mobile